createdAt,value
2022-08-16T00:01:40.786Z,6.57
2022-08-16T00:04:09.517Z,7.28
2022-08-16T00:06:39.496Z,6.57
2022-08-16T00:09:06.962Z,6.47
2022-08-16T00:11:34.368Z,7.25
2022-08-16T00:14:02.302Z,6.88
2022-08-16T00:17:01.134Z,6.63
2022-08-16T00:19:25.065Z,7.85
2022-08-16T00:22:00.992Z,7.07
2022-08-16T00:24:34.953Z,6.57
2022-08-16T00:27:03.382Z,6.85
2022-08-16T00:29:30.726Z,8.38
2022-08-16T00:32:05.415Z,6.93
2022-08-16T00:34:44.057Z,7.75
2022-08-16T00:37:21.037Z,6.95
2022-08-16T00:39:57.413Z,6.57
2022-08-16T00:42:30.296Z,7.38
2022-08-16T00:45:01.533Z,7.78
2022-08-16T00:47:34.273Z,7.65
2022-08-16T00:50:01.445Z,7.32
2022-08-16T00:52:30.017Z,8.45
2022-08-16T00:54:58.867Z,6.88
2022-08-16T00:57:27.444Z,8.02
2022-08-16T01:00:19.921Z,7.13
2022-08-16T01:02:51.481Z,7.32
2022-08-16T01:05:23.946Z,7.47
2022-08-16T01:07:53.337Z,8.10
2022-08-16T01:10:30.527Z,7.20
2022-08-16T01:13:00.328Z,7.28
2022-08-16T01:15:28.539Z,8.32
2022-08-16T01:17:58.168Z,7.97
2022-08-16T01:20:30.047Z,7.90
2022-08-16T01:22:57.668Z,8.07
2022-08-16T01:25:34.216Z,8.32
2022-08-16T01:28:04.014Z,7.82
2022-08-16T01:30:33.302Z,8.52
2022-08-16T01:33:14.339Z,8.00
2022-08-16T01:35:56.200Z,7.50
2022-08-16T01:38:35.409Z,7.70
2022-08-16T01:41:07.244Z,7.88
2022-08-16T01:43:35.736Z,7.63
2022-08-16T01:46:37.684Z,8.18
2022-08-16T01:48:54.871Z,8.23
2022-08-16T01:51:22.707Z,8.85
2022-08-16T01:53:54.619Z,8.48
2022-08-16T01:56:24.716Z,7.65
2022-08-16T01:58:54.625Z,8.88
2022-08-16T02:01:22.165Z,8.45
2022-08-16T02:03:50.699Z,7.78
2022-08-16T02:06:26.057Z,10.15
2022-08-16T02:11:48.460Z,9.43
2022-08-16T02:14:17.389Z,8.82
2022-08-16T02:16:45.883Z,8.15
2022-08-16T02:19:16.280Z,9.95
2022-08-16T02:22:07.659Z,9.25
2022-08-16T02:24:32.841Z,8.57
2022-08-16T02:27:08.490Z,8.10
2022-08-16T02:29:35.624Z,8.90
2022-08-16T02:32:49.089Z,9.23
2022-08-16T02:34:50.345Z,9.35
2022-08-16T02:37:20.842Z,9.75
2022-08-16T02:39:53.975Z,8.93
2022-08-16T02:42:21.578Z,9.88
2022-08-16T02:44:49.103Z,10.07
2022-08-16T02:47:24.940Z,9.20
2022-08-16T02:49:59.203Z,10.82
2022-08-16T02:52:43.746Z,9.98
2022-08-16T02:55:11.507Z,9.90
2022-08-16T02:57:54.433Z,11.50
2022-08-16T03:00:33.908Z,10.48
2022-08-16T03:03:03.288Z,9.93
2022-08-16T03:05:31.578Z,10.48
2022-08-16T03:07:59.340Z,10.75
2022-08-16T03:10:33.517Z,10.82
2022-08-16T03:13:01.766Z,11.48
2022-08-16T03:15:30.798Z,11.68
2022-08-16T03:17:57.969Z,10.52
2022-08-16T03:20:32.434Z,9.98
2022-08-16T03:23:00.385Z,11.32
2022-08-16T03:25:40.936Z,10.75
2022-08-16T03:28:11.599Z,10.55
2022-08-16T03:30:38.837Z,10.48
2022-08-16T03:33:07.414Z,10.98
2022-08-16T03:35:35.785Z,11.48
2022-08-16T03:38:04.322Z,11.93
2022-08-16T03:40:51.759Z,12.30
2022-08-16T03:43:21.469Z,11.93
2022-08-16T03:45:52.826Z,12.55
2022-08-16T03:48:21.164Z,12.93
2022-08-16T03:51:04.932Z,15.65
2022-08-16T03:53:37.861Z,14.27
2022-08-16T03:56:07.374Z,15.35
2022-08-16T03:58:34.984Z,15.57
2022-08-16T04:01:04.905Z,15.90
2022-08-16T04:03:32.810Z,15.82
2022-08-16T04:06:00.216Z,15.25
2022-08-16T04:08:31.248Z,14.02
2022-08-16T04:11:03.607Z,13.05
2022-08-16T04:14:00.063Z,14.27
2022-08-16T04:16:27.459Z,12.68
2022-08-16T04:19:01.938Z,13.00
2022-08-16T04:21:30.953Z,13.07
2022-08-16T04:23:59.442Z,13.02
2022-08-16T04:26:31.119Z,15.02
2022-08-16T04:29:16.762Z,14.82
2022-08-16T04:31:56.726Z,12.73
2022-08-16T04:34:29.590Z,13.48
2022-08-16T04:37:01.477Z,12.20
2022-08-16T04:39:45.782Z,13.50
2022-08-16T04:42:14.648Z,14.80
2022-08-16T04:44:54.042Z,12.45
2022-08-16T04:47:24.458Z,14.48
2022-08-16T04:49:52.791Z,14.48
2022-08-16T04:52:32.822Z,14.32
2022-08-16T04:55:03.462Z,12.18
2022-08-16T04:57:30.756Z,13.82
2022-08-16T04:59:58.001Z,13.02
2022-08-16T05:02:41.606Z,12.60
2022-08-16T05:05:17.829Z,11.18
2022-08-16T05:07:58.501Z,12.07
2022-08-16T05:10:27.663Z,12.83
2022-08-16T05:12:54.747Z,12.73
2022-08-16T05:15:23.841Z,12.77
2022-08-16T05:17:58.876Z,12.68
2022-08-16T05:20:45.260Z,13.25
2022-08-16T05:23:14.913Z,11.75
2022-08-16T05:25:48.454Z,10.85
2022-08-16T05:28:16.690Z,11.15
2022-08-16T05:30:43.857Z,11.68
2022-08-16T05:33:16.782Z,10.43
2022-08-16T05:35:54.629Z,10.98
2022-08-16T05:38:32.907Z,11.38
2022-08-16T05:41:07.068Z,10.93
2022-08-16T05:43:43.319Z,10.40
2022-08-16T05:46:28.644Z,10.85
2022-08-16T05:49:03.695Z,10.43
2022-08-16T05:51:38.258Z,10.15
2022-08-16T05:54:06.235Z,9.90
2022-08-16T05:56:34.264Z,9.10
2022-08-16T05:59:06.300Z,8.93
2022-08-16T06:01:38.284Z,8.90
2022-08-16T06:04:13.388Z,9.27
2022-08-16T06:06:56.840Z,9.27
2022-08-16T06:09:25.157Z,8.07
2022-08-16T06:11:52.397Z,7.22
2022-08-16T06:14:19.663Z,7.90
2022-08-16T06:16:50.533Z,7.28
2022-08-16T06:19:18.228Z,6.93
2022-08-16T06:21:45.900Z,7.03
2022-08-16T06:24:53.374Z,7.80
2022-08-16T06:27:09.818Z,8.40
2022-08-16T06:29:37.428Z,6.35
2022-08-16T06:32:05.034Z,8.40
2022-08-16T06:34:57.267Z,6.50
2022-08-16T06:37:23.358Z,6.80
2022-08-16T06:39:50.752Z,6.03
2022-08-16T06:42:18.923Z,6.60
2022-08-16T06:44:46.492Z,6.45
2022-08-16T06:47:17.245Z,7.53
2022-08-16T06:49:52.665Z,8.60
2022-08-16T06:52:55.509Z,7.75
2022-08-16T06:55:13.643Z,9.05
2022-08-16T06:57:41.870Z,8.73
2022-08-16T07:00:24.173Z,9.13
2022-08-16T07:02:53.626Z,9.07
2022-08-16T07:05:27.209Z,9.13
2022-08-16T07:08:11.618Z,9.43
2022-08-16T07:10:41.687Z,9.88
2022-08-16T07:13:11.820Z,9.45
2022-08-16T07:15:50.139Z,9.02
2022-08-16T07:18:20.171Z,9.40
2022-08-16T07:20:49.095Z,8.88
2022-08-16T07:23:16.371Z,9.52
2022-08-16T07:25:44.165Z,9.68
2022-08-16T07:28:20.547Z,8.32
2022-08-16T07:30:51.339Z,8.75
2022-08-16T07:33:53.290Z,10.00
2022-08-16T07:36:09.705Z,9.07
2022-08-16T07:38:37.166Z,8.35
2022-08-16T07:41:09.649Z,7.28
2022-08-16T07:43:40.406Z,7.45
2022-08-16T07:46:39.538Z,7.23
2022-08-16T07:49:02.395Z,6.95
2022-08-16T07:51:33.102Z,6.60
2022-08-16T07:54:09.527Z,5.50
2022-08-16T07:56:38.355Z,6.90
2022-08-16T07:59:06.629Z,6.03
2022-08-16T08:01:34.683Z,6.50
2022-08-16T08:04:03.771Z,6.90
2022-08-16T08:06:32.363Z,7.10
2022-08-16T08:09:00.227Z,6.55
2022-08-16T08:11:29.114Z,5.50
2022-08-16T08:13:57.615Z,6.00
2022-08-16T08:16:31.159Z,6.60
2022-08-16T08:19:01.143Z,7.32
2022-08-16T08:22:01.507Z,7.30
2022-08-16T08:24:17.641Z,6.60
2022-08-16T08:26:49.845Z,5.85
2022-08-16T08:29:17.728Z,6.53
2022-08-16T08:31:51.902Z,5.55
2022-08-16T08:34:19.301Z,5.85
2022-08-16T08:36:48.560Z,7.15
2022-08-16T08:39:15.680Z,5.40
2022-08-16T08:41:49.528Z,6.18
2022-08-16T08:47:00.568Z,7.22
2022-08-16T08:49:46.226Z,5.95
2022-08-16T08:52:34.849Z,6.75
2022-08-16T08:55:10.698Z,6.90
2022-08-16T08:57:39.045Z,6.03
2022-08-16T09:00:13.453Z,6.40
2022-08-16T09:02:41.855Z,6.95
2022-08-16T09:05:15.226Z,6.07
2022-08-16T09:08:00.118Z,5.18
2022-08-16T09:10:29.390Z,5.88
2022-08-16T09:12:56.998Z,6.03
2022-08-16T09:17:56.771Z,5.82
2022-08-16T09:20:25.520Z,5.90
2022-08-16T09:22:53.208Z,6.57
2022-08-16T09:25:26.271Z,5.97
2022-08-16T09:28:08.917Z,6.43
2022-08-16T09:30:43.221Z,6.70
2022-08-16T09:33:12.729Z,5.97
2022-08-16T09:35:42.458Z,5.63
2022-08-16T09:38:12.840Z,5.05
2022-08-16T09:40:59.006Z,6.47
2022-08-16T09:43:58.029Z,5.38
2022-08-16T09:46:45.373Z,5.40
2022-08-16T09:49:03.847Z,5.43
2022-08-16T09:51:36.867Z,6.10
2022-08-16T09:54:04.781Z,6.47
2022-08-16T09:56:33.878Z,6.20
2022-08-16T09:59:03.334Z,7.10
2022-08-16T10:01:31.869Z,6.78
2022-08-16T10:04:02.665Z,6.35
2022-08-16T10:06:33.628Z,5.30
2022-08-16T10:09:05.758Z,5.70
2022-08-16T10:11:53.807Z,6.47
2022-08-16T10:14:24.873Z,6.25
2022-08-16T10:17:02.429Z,5.50
2022-08-16T10:19:31.999Z,5.53
2022-08-16T10:21:59.886Z,6.28
2022-08-16T10:24:32.778Z,6.90
2022-08-16T10:27:25.344Z,7.18
2022-08-16T10:30:00.732Z,7.20
2022-08-16T10:32:30.475Z,6.28
2022-08-16T10:34:59.503Z,6.32
2022-08-16T10:37:32.767Z,6.53
2022-08-16T10:40:03.215Z,6.60
2022-08-16T10:42:30.740Z,6.65
2022-08-16T10:44:57.830Z,6.30
2022-08-16T10:47:26.359Z,5.78
2022-08-16T10:49:55.825Z,6.88
2022-08-16T10:52:24.399Z,5.57
2022-08-16T10:54:59.445Z,6.10
2022-08-16T10:57:28.072Z,5.53
2022-08-16T11:00:01.173Z,6.82
2022-08-16T11:02:58.780Z,6.15
2022-08-16T11:05:16.574Z,6.05
2022-08-16T11:07:45.554Z,6.65
2022-08-16T11:10:20.657Z,6.50
2022-08-16T11:12:48.309Z,6.18
2022-08-16T11:15:20.248Z,6.75
2022-08-16T11:18:21.556Z,5.10
2022-08-16T11:20:42.320Z,5.72
2022-08-16T11:23:10.895Z,4.90
2022-08-16T11:31:13.569Z,5.38
2022-08-16T11:33:56.134Z,5.90
2022-08-16T11:38:58.058Z,5.50
2022-08-16T11:41:26.546Z,5.80
2022-08-16T11:43:58.032Z,5.60
2022-08-16T11:46:43.581Z,5.90
2022-08-16T11:49:13.972Z,5.85
2022-08-16T11:51:43.982Z,5.22
2022-08-16T11:54:21.513Z,5.13
2022-08-16T11:56:53.014Z,5.95
2022-08-16T11:59:28.752Z,5.55
2022-08-16T12:02:04.111Z,4.90
2022-08-16T12:04:46.846Z,5.10
2022-08-16T12:07:19.590Z,4.68
2022-08-16T12:09:50.963Z,4.72
2022-08-16T12:12:20.323Z,4.28
2022-08-16T12:14:47.439Z,4.90
2022-08-16T12:17:14.646Z,4.00
2022-08-16T12:19:42.393Z,4.20
2022-08-16T12:22:19.308Z,4.20
2022-08-16T12:24:47.962Z,4.68
2022-08-16T12:27:19.985Z,4.68
2022-08-16T12:29:51.353Z,5.00
2022-08-16T12:32:27.153Z,4.35
2022-08-16T12:35:07.425Z,4.50
2022-08-16T12:37:34.929Z,4.38
2022-08-16T12:40:02.737Z,3.97
2022-08-16T12:42:35.767Z,3.90
2022-08-16T12:45:07.164Z,4.13
2022-08-16T12:48:09.968Z,4.03
2022-08-16T12:50:41.118Z,4.38
2022-08-16T12:53:08.306Z,4.35
2022-08-16T12:55:42.093Z,3.95
2022-08-16T12:58:14.247Z,3.97
2022-08-16T13:00:59.739Z,4.03
2022-08-16T13:03:28.891Z,4.40
2022-08-16T13:05:59.904Z,4.60
2022-08-16T13:08:30.707Z,3.97
2022-08-16T13:11:00.842Z,4.40
2022-08-16T13:13:29.394Z,3.70
2022-08-16T13:16:00.879Z,4.15
2022-08-16T13:18:34.489Z,3.85
2022-08-16T13:23:30.080Z,3.88
2022-08-16T13:25:57.456Z,4.15
2022-08-16T13:28:24.655Z,4.25
2022-08-16T13:30:53.471Z,3.95
2022-08-16T13:33:30.184Z,4.00
2022-08-16T13:35:58.739Z,4.20
2022-08-16T13:38:27.499Z,3.63
2022-08-16T13:40:58.412Z,4.28
2022-08-16T13:43:27.287Z,4.47
2022-08-16T13:45:56.003Z,4.13
2022-08-16T13:48:25.346Z,4.45
2022-08-16T13:50:54.044Z,4.10
2022-08-16T13:53:24.555Z,4.80
2022-08-16T13:55:57.837Z,4.05
2022-08-16T13:58:37.144Z,3.70
2022-08-16T14:01:13.445Z,3.70
2022-08-16T14:03:40.947Z,3.90
2022-08-16T14:06:11.517Z,3.90
2022-08-16T14:08:43.089Z,3.03
2022-08-16T14:11:12.036Z,3.72
2022-08-16T14:13:40.138Z,3.67
2022-08-16T14:16:12.359Z,4.05
2022-08-16T14:18:50.472Z,3.55
2022-08-16T14:21:20.046Z,3.85
2022-08-16T14:23:51.857Z,3.85
2022-08-16T14:26:21.102Z,4.07
2022-08-16T14:28:50.357Z,4.50
2022-08-16T14:31:18.038Z,3.47
2022-08-16T14:33:45.420Z,3.28
2022-08-16T14:36:25.022Z,3.45
2022-08-16T14:38:57.383Z,3.78
2022-08-16T14:41:24.568Z,4.05
2022-08-16T14:43:51.968Z,3.08
2022-08-16T14:46:19.129Z,3.70
2022-08-16T14:48:46.307Z,3.40
2022-08-16T14:51:15.779Z,3.75
2022-08-16T14:53:45.489Z,3.67
2022-08-16T14:56:38.253Z,3.50
2022-08-16T14:59:03.967Z,3.92
2022-08-16T15:01:57.304Z,3.60
2022-08-16T15:04:39.791Z,3.70
2022-08-16T15:07:05.447Z,3.78
2022-08-16T15:09:32.644Z,3.70
2022-08-16T15:12:27.017Z,3.67
2022-08-16T15:15:00.922Z,3.42
2022-08-16T15:17:33.990Z,3.88
2022-08-16T15:20:08.452Z,3.40
2022-08-16T15:25:05.608Z,3.38
2022-08-16T15:27:36.008Z,3.30
2022-08-16T15:30:48.108Z,3.40
2022-08-16T15:32:58.011Z,3.15
2022-08-16T15:35:25.149Z,3.35
2022-08-16T15:37:54.661Z,4.10
2022-08-16T15:40:22.586Z,3.47
2022-08-16T15:43:00.737Z,3.10
2022-08-16T15:45:47.341Z,3.50
2022-08-16T15:48:28.437Z,3.38
2022-08-16T15:50:58.076Z,3.08
2022-08-16T15:53:27.254Z,3.15
2022-08-16T15:55:55.421Z,3.20
2022-08-16T15:58:34.914Z,3.30
2022-08-16T16:01:04.966Z,2.67
2022-08-16T16:03:34.671Z,3.03
2022-08-16T16:06:02.738Z,3.15
2022-08-16T16:08:30.885Z,3.13
2022-08-16T16:11:00.414Z,3.38
2022-08-16T16:13:30.366Z,3.13
2022-08-16T16:15:58.778Z,2.60
2022-08-16T16:18:26.075Z,3.63
2022-08-16T16:20:55.035Z,3.13
2022-08-16T16:23:24.597Z,3.17
2022-08-16T16:25:52.124Z,2.97
2022-08-16T16:29:05.423Z,2.92
2022-08-16T16:31:09.001Z,3.30
2022-08-16T16:33:39.869Z,2.55
2022-08-16T16:36:07.494Z,2.63
2022-08-16T16:38:35.249Z,2.70
2022-08-16T16:41:05.110Z,3.15
2022-08-16T16:43:38.529Z,3.40
2022-08-16T16:48:55.187Z,3.53
2022-08-16T16:51:22.531Z,3.40
2022-08-16T16:53:55.764Z,3.63
2022-08-16T16:56:29.394Z,3.40
2022-08-16T16:59:08.024Z,3.65
2022-08-16T17:01:56.784Z,4.43
2022-08-16T17:04:32.774Z,3.60
2022-08-16T17:07:00.966Z,3.90
2022-08-16T17:09:28.114Z,4.28
2022-08-16T17:11:56.631Z,3.88
2022-08-16T17:14:32.868Z,3.75
2022-08-16T17:19:49.253Z,4.20
2022-08-16T17:22:19.803Z,4.50
2022-08-16T17:24:50.683Z,3.88
2022-08-16T17:27:32.770Z,4.10
2022-08-16T17:30:15.702Z,4.70
2022-08-16T17:35:18.376Z,4.30
2022-08-16T17:37:51.581Z,3.80
2022-08-16T17:39:26.421Z,3.90
2022-08-16T17:40:37.316Z,4.15
2022-08-16T17:43:10.178Z,4.75
2022-08-16T17:45:39.060Z,4.22
2022-08-16T17:48:06.452Z,4.82
2022-08-16T17:50:33.813Z,4.35
2022-08-16T17:53:02.956Z,4.93
2022-08-16T17:55:34.284Z,4.65
2022-08-16T17:58:01.840Z,4.35
2022-08-16T18:00:49.027Z,4.45
2022-08-16T18:03:17.892Z,4.72
2022-08-16T18:06:06.749Z,4.53
2022-08-16T18:08:34.397Z,4.72
2022-08-16T18:11:02.918Z,4.70
2022-08-16T18:13:30.207Z,4.68
2022-08-16T18:15:57.933Z,4.38
2022-08-16T18:18:26.563Z,5.15
2022-08-16T18:21:13.426Z,3.95
2022-08-16T18:23:40.616Z,4.20
2022-08-16T18:26:08.452Z,4.28
2022-08-16T18:28:37.761Z,4.55
2022-08-16T18:31:06.140Z,4.72
2022-08-16T18:33:34.007Z,5.07
2022-08-16T18:36:21.183Z,5.25
2022-08-16T18:38:49.182Z,5.45
2022-08-16T18:41:16.464Z,4.55
2022-08-16T18:43:58.770Z,4.68
2022-08-16T18:46:30.854Z,4.35
2022-08-16T18:48:57.990Z,4.60
2022-08-16T18:51:25.881Z,4.75
2022-08-16T18:53:53.335Z,4.90
2022-08-16T18:56:20.548Z,4.97
2022-08-16T18:58:47.650Z,4.40
2022-08-16T19:01:14.870Z,5.68
2022-08-16T19:03:42.096Z,4.65
2022-08-16T19:06:13.642Z,4.93
2022-08-16T19:08:41.883Z,5.45
2022-08-16T19:11:13.703Z,5.20
2022-08-16T19:13:40.937Z,4.95
2022-08-16T19:16:08.163Z,5.32
2022-08-16T19:18:36.922Z,4.85
2022-08-16T19:21:04.232Z,5.65
2022-08-16T19:23:34.334Z,5.10
2022-08-16T19:26:05.420Z,5.00
2022-08-16T19:28:50.708Z,6.10
2022-08-16T19:31:27.222Z,5.93
2022-08-16T19:33:56.446Z,4.88
2022-08-16T19:36:30.970Z,5.88
2022-08-16T19:39:04.237Z,6.63
2022-08-16T19:41:32.691Z,5.72
2022-08-16T19:43:59.776Z,5.88
2022-08-16T19:46:26.870Z,7.18
2022-08-16T19:48:54.002Z,7.07
2022-08-16T19:51:21.110Z,6.22
2022-08-16T19:53:48.201Z,6.57
2022-08-16T19:56:15.392Z,7.05
2022-08-16T19:59:02.025Z,6.38
2022-08-16T20:01:29.592Z,7.18
2022-08-16T20:03:56.707Z,6.70
2022-08-16T20:06:32.162Z,6.90
2022-08-16T20:09:05.487Z,6.13
2022-08-16T20:11:32.609Z,6.60
2022-08-16T20:13:59.707Z,6.90
2022-08-16T20:16:27.085Z,6.88
2022-08-16T20:18:54.180Z,6.70
2022-08-16T20:21:21.309Z,6.75
2022-08-16T20:23:48.447Z,7.25
2022-08-16T20:26:15.825Z,7.57
2022-08-16T20:28:54.116Z,7.28
2022-08-16T20:31:22.307Z,7.05
2022-08-16T20:33:51.426Z,7.20
2022-08-16T20:36:18.563Z,7.55
2022-08-16T20:38:47.522Z,7.28
2022-08-16T20:41:15.374Z,7.68
2022-08-16T20:43:42.476Z,7.72
2022-08-16T20:46:10.572Z,6.85
2022-08-16T20:48:37.671Z,7.57
2022-08-16T20:51:06.734Z,7.72
2022-08-16T20:53:34.330Z,7.10
2022-08-16T20:56:02.526Z,7.25
2022-08-16T20:58:29.688Z,8.07
2022-08-16T21:00:56.798Z,8.38
2022-08-16T21:03:24.069Z,8.00
2022-08-16T21:05:51.232Z,7.40
2022-08-16T21:08:50.044Z,7.25
2022-08-16T21:11:06.407Z,8.57
2022-08-16T21:13:33.875Z,7.22
2022-08-16T21:16:02.593Z,8.07
2022-08-16T21:18:29.730Z,7.63
2022-08-16T21:20:56.918Z,8.95
2022-08-16T21:23:24.658Z,8.07
2022-08-16T21:25:57.989Z,7.95
2022-08-16T21:28:38.636Z,8.02
2022-08-16T21:31:09.354Z,8.13
2022-08-16T21:33:36.836Z,7.97
2022-08-16T21:36:04.238Z,7.95
2022-08-16T21:38:31.432Z,7.63
2022-08-16T21:40:59.763Z,7.65
2022-08-16T21:43:31.688Z,9.02
2022-08-16T21:45:59.353Z,7.95
2022-08-16T21:48:34.671Z,8.50
2022-08-16T21:51:06.896Z,7.85
2022-08-16T21:53:34.119Z,8.10
2022-08-16T21:56:01.674Z,8.55
2022-08-16T21:58:29.330Z,8.15
2022-08-16T22:00:56.655Z,8.05
2022-08-16T22:03:23.837Z,8.95
2022-08-16T22:06:13.073Z,8.73
2022-08-16T22:08:47.858Z,8.38
2022-08-16T22:11:21.838Z,9.32
2022-08-16T22:13:51.539Z,8.57
2022-08-16T22:16:25.985Z,9.57
2022-08-16T22:18:53.168Z,9.15
2022-08-16T22:21:20.513Z,9.32
2022-08-16T22:23:55.311Z,9.45
2022-08-16T22:26:30.740Z,9.25
2022-08-16T22:29:04.421Z,8.50
2022-08-16T22:31:32.183Z,9.02
2022-08-16T22:34:01.514Z,10.13
2022-08-16T22:36:29.065Z,10.02
2022-08-16T22:38:58.762Z,9.15
2022-08-16T22:41:26.963Z,10.05
2022-08-16T22:43:54.112Z,9.80
2022-08-16T22:46:21.368Z,10.18
2022-08-16T22:48:51.457Z,10.32
2022-08-16T22:51:19.520Z,10.23
2022-08-16T22:53:46.717Z,10.00
2022-08-16T22:56:15.512Z,9.75
2022-08-16T22:58:43.035Z,10.40
2022-08-16T23:01:10.811Z,10.43
2022-08-16T23:03:38.456Z,9.93
2022-08-16T23:06:06.305Z,9.15
2022-08-16T23:08:40.269Z,9.60
2022-08-16T23:11:09.098Z,9.52
2022-08-16T23:13:36.288Z,9.48
2022-08-16T23:16:11.502Z,9.68
2022-08-16T23:18:40.905Z,8.98
2022-08-16T23:21:09.224Z,8.68
2022-08-16T23:23:36.686Z,9.52
2022-08-16T23:26:36.479Z,9.98
2022-08-16T23:28:51.289Z,9.73
2022-08-16T23:31:18.441Z,9.60
2022-08-16T23:33:45.921Z,9.48
2022-08-16T23:36:13.469Z,9.82
2022-08-16T23:38:42.866Z,9.43
2022-08-16T23:41:11.740Z,9.90
2022-08-16T23:43:43.003Z,9.75
2022-08-16T23:46:13.459Z,9.95
2022-08-16T23:49:58.839Z,10.32
2022-08-16T23:51:28.902Z,9.77
2022-08-16T23:53:56.065Z,9.60
2022-08-16T23:56:23.172Z,9.48
2022-08-16T23:58:54.398Z,9.80
